»·PEaware :: SWA2842 KSNA-KSNA

SWA2842 :: KSNA-KSNA

FLIGHT INFORMATION

Flight Status: Arrived
Operator:
Southwest Airlines
More flights by this operator :: More flights under this callsign
Pilot: Cody B. (17747)
Aircraft: BOEING 737-800
(B738)
More flights by this aircraft type
Origin: KSNA John Wayne-Orange Co
United States
Destination: KSNA John Wayne-Orange Co
United States
More flights between these airports :: More routes between these airports
Route: +SLI
File this flight plan on PilotEdge
Remarks: For the I-1 Rating, Good Morning
Altitude:
(Current/Filed)
3,000ft
Speed:
(Current/Filed)
200kts
Departed: 06-Jan-18 04:52 PM
Arrived: 06-Jan-18 05:11 PM
Distance/Time
Traveled:
0nm/0:19
Distance/Time
To Go:
Arrived

Flight Plot

Page will automatically refresh every two minutes.


Map Options




Map Legend


Flown Route
Filed Route
Departure Airport
Arrival Airport
Navaid (VOR, NDB)
Fix

Horizontal Profiles

Position Reports

Time Latitude Longitude Heading Altitude Ground
Speed
06-Jan-18 16:20 33.677186 -117.863727 118 44ft 0kts
06-Jan-18 16:21 33.677186 -117.863727 118 44ft 0kts
06-Jan-18 16:22 33.677186 -117.863727 118 44ft 0kts
06-Jan-18 16:23 33.677186 -117.863727 118 44ft 0kts
06-Jan-18 16:24 33.677186 -117.863727 118 44ft 0kts
06-Jan-18 16:25 33.677186 -117.863727 118 44ft 0kts
06-Jan-18 16:26 33.677186 -117.863727 118 44ft 0kts
06-Jan-18 16:27 33.677186 -117.863727 118 44ft 0kts
06-Jan-18 16:28 33.677186 -117.863727 118 44ft 0kts
06-Jan-18 16:29 33.677186 -117.863727 118 44ft 0kts
06-Jan-18 16:30 33.677186 -117.863727 118 44ft 0kts
06-Jan-18 16:31 33.677186 -117.863727 118 44ft 0kts
06-Jan-18 16:32 33.677186 -117.863727 118 44ft 0kts
06-Jan-18 16:33 33.677186 -117.863727 118 44ft 0kts
06-Jan-18 16:34 33.677186 -117.863727 118 44ft 0kts
06-Jan-18 16:35 33.677186 -117.863727 118 44ft 0kts
06-Jan-18 16:36 33.677186 -117.863727 118 44ft 0kts
06-Jan-18 16:37 33.677186 -117.863727 118 44ft 0kts
06-Jan-18 16:38 33.677186 -117.863727 118 44ft 0kts
06-Jan-18 16:39 33.677186 -117.863727 118 44ft 0kts
06-Jan-18 16:40 33.677186 -117.863727 118 44ft 0kts
06-Jan-18 16:41 33.677186 -117.863727 118 44ft 0kts
06-Jan-18 16:42 33.677186 -117.863727 118 44ft 0kts
06-Jan-18 16:43 33.677186 -117.863727 118 44ft 0kts
06-Jan-18 16:44 33.677186 -117.863727 118 44ft 0kts
06-Jan-18 16:45 33.677186 -117.863727 118 44ft 0kts
06-Jan-18 16:46 33.677186 -117.863727 118 44ft 0kts
06-Jan-18 16:47 33.677186 -117.863727 118 44ft 0kts
06-Jan-18 16:48 33.677186 -117.863727 118 44ft 0kts
06-Jan-18 16:49 33.677186 -117.863728 118 44ft 0kts
06-Jan-18 16:50 33.677398 -117.864246 82 44ft 2kts
06-Jan-18 16:51 33.677212 -117.864531 27 45ft 0kts
06-Jan-18 16:52 33.677212 -117.864531 27 45ft 0kts
06-Jan-18 16:53 33.677212 -117.864531 27 45ft 0kts
06-Jan-18 16:54 33.677212 -117.864531 27 45ft 0kts
06-Jan-18 16:55 33.678685 -117.863592 27 44ft 12kts
06-Jan-18 16:56 33.680598 -117.863019 301 43ft 0kts
06-Jan-18 16:57 33.681124 -117.864145 298 44ft 10kts
06-Jan-18 16:58 33.674890 -117.869348 206 54ft 125kts
06-Jan-18 16:59 33.620380 -117.895562 189 1195ft 231kts
06-Jan-18 17:00 33.560855 -117.902827 204 3925ft 184kts
06-Jan-18 17:01 33.556741 -117.954515 320 5076ft 230kts
06-Jan-18 17:02 33.619421 -117.966449 3 5017ft 231kts
06-Jan-18 17:03 33.680274 -117.935274 21 5000ft 240kts
06-Jan-18 17:04 33.740547 -117.901522 20 4999ft 240kts
06-Jan-18 17:05 33.801966 -117.869410 21 4997ft 244kts
06-Jan-18 17:06 33.860709 -117.836603 22 4615ft 228kts
06-Jan-18 17:07 33.918235 -117.805377 21 3994ft 228kts
06-Jan-18 17:08 33.973103 -117.768323 48 4037ft 230kts
06-Jan-18 17:09 33.955025 -117.711240 177 4021ft 205kts
06-Jan-18 17:10 33.903047 -117.723314 215 4017ft 180kts
06-Jan-18 17:11 33.861103 -117.750898 213 3010ft 175kts
06-Jan-18 17:12 33.818502 -117.778114 211 3010ft 171kts
06-Jan-18 17:13 33.783854 -117.800127 211 2269ft 122kts
06-Jan-18 17:14 33.753086 -117.819723 210 1639ft 127kts
06-Jan-18 17:15 33.721431 -117.839821 209 948ft 130kts
06-Jan-18 17:16 33.689290 -117.860212 208 250ft 131kts
06-Jan-18 17:17 33.670857 -117.871875 210 56ft 18kts
06-Jan-18 17:18 33.669522 -117.872004 147 57ft 0kts
06-Jan-18 17:19 33.669476 -117.871968 145 57ft 3kts
06-Jan-18 17:20 33.669952 -117.870081 38 54ft 2kts
06-Jan-18 17:21 33.671322 -117.868712 35 54ft 12kts
06-Jan-18 17:22 33.675003 -117.865917 27 49ft 11kts
06-Jan-18 17:23 33.675381 -117.864907 114 47ft 0kts
06-Jan-18 17:24 33.675381 -117.864907 114 47ft 0kts
06-Jan-18 17:25 33.675381 -117.864907 114 47ft 0kts
06-Jan-18 17:26 33.675381 -117.864907 114 47ft 0kts

Navigation Log

Ident Type
1. KSNA Airport
2. SLI Navaid
3. KSNA Airport